sensor_id;sensor_type;location;lat;lon;timestamp;P1;durP1;ratioP1;P2;durP2;ratioP2
14992;SDS011;7592;51.088;13.732;2023-04-25T00:03:33;3.90;;;2.43;;
14992;SDS011;7592;51.088;13.732;2023-04-25T00:08:27;4.80;;;2.47;;
14992;SDS011;7592;51.088;13.732;2023-04-25T00:13:20;2.30;;;2.20;;
14992;SDS011;7592;51.088;13.732;2023-04-25T00:18:14;2.90;;;2.57;;
14992;SDS011;7592;51.088;13.732;2023-04-25T00:23:06;2.67;;;2.37;;
14992;SDS011;7592;51.088;13.732;2023-04-25T00:27:59;3.60;;;3.30;;
14992;SDS011;7592;51.088;13.732;2023-04-25T00:32:51;2.90;;;2.70;;
14992;SDS011;7592;51.088;13.732;2023-04-25T00:37:44;3.47;;;3.00;;
14992;SDS011;7592;51.088;13.732;2023-04-25T00:42:37;4.00;;;2.60;;
14992;SDS011;7592;51.088;13.732;2023-04-25T00:47:29;2.57;;;2.37;;
14992;SDS011;7592;51.088;13.732;2023-04-25T00:52:21;3.03;;;2.60;;
14992;SDS011;7592;51.088;13.732;2023-04-25T00:57:14;3.97;;;2.87;;
14992;SDS011;7592;51.088;13.732;2023-04-25T01:02:06;2.93;;;2.60;;
14992;SDS011;7592;51.088;13.732;2023-04-25T01:14:01;4.00;;;3.23;;
14992;SDS011;7592;51.088;13.732;2023-04-25T01:18:54;3.27;;;2.90;;
14992;SDS011;7592;51.088;13.732;2023-04-25T01:23:47;3.93;;;3.53;;
14992;SDS011;7592;51.088;13.732;2023-04-25T01:28:40;3.20;;;3.00;;
14992;SDS011;7592;51.088;13.732;2023-04-25T01:33:34;5.03;;;4.50;;
14992;SDS011;7592;51.088;13.732;2023-04-25T01:38:26;4.73;;;4.33;;
14992;SDS011;7592;51.088;13.732;2023-04-25T01:43:19;4.50;;;4.10;;
14992;SDS011;7592;51.088;13.732;2023-04-25T01:48:12;4.27;;;3.83;;
14992;SDS011;7592;51.088;13.732;2023-04-25T01:58:10;4.13;;;3.73;;
14992;SDS011;7592;51.088;13.732;2023-04-25T02:03:20;6.13;;;4.90;;
14992;SDS011;7592;51.088;13.732;2023-04-25T02:08:13;5.90;;;5.23;;
14992;SDS011;7592;51.088;13.732;2023-04-25T02:13:05;5.37;;;4.87;;
14992;SDS011;7592;51.088;13.732;2023-04-25T02:18:06;5.63;;;4.90;;
14992;SDS011;7592;51.088;13.732;2023-04-25T02:22:59;6.40;;;5.20;;
14992;SDS011;7592;51.088;13.732;2023-04-25T02:27:52;6.50;;;4.87;;
14992;SDS011;7592;51.088;13.732;2023-04-25T02:32:44;6.10;;;5.50;;
14992;SDS011;7592;51.088;13.732;2023-04-25T02:37:37;7.23;;;5.47;;
14992;SDS011;7592;51.088;13.732;2023-04-25T02:42:30;6.33;;;5.73;;
14992;SDS011;7592;51.088;13.732;2023-04-25T02:47:23;6.30;;;5.10;;
14992;SDS011;7592;51.088;13.732;2023-04-25T02:52:16;12.37;;;7.57;;
14992;SDS011;7592;51.088;13.732;2023-04-25T02:57:14;5.07;;;4.73;;
14992;SDS011;7592;51.088;13.732;2023-04-25T03:02:06;4.47;;;4.07;;
14992;SDS011;7592;51.088;13.732;2023-04-25T03:06:58;7.80;;;5.20;;
14992;SDS011;7592;51.088;13.732;2023-04-25T03:11:50;5.90;;;5.20;;
14992;SDS011;7592;51.088;13.732;2023-04-25T03:16:44;6.97;;;5.40;;
14992;SDS011;7592;51.088;13.732;2023-04-25T03:21:37;7.10;;;6.17;;
14992;SDS011;7592;51.088;13.732;2023-04-25T03:26:29;8.17;;;6.47;;
14992;SDS011;7592;51.088;13.732;2023-04-25T03:31:21;7.20;;;5.73;;
14992;SDS011;7592;51.088;13.732;2023-04-25T03:36:14;6.97;;;5.47;;
14992;SDS011;7592;51.088;13.732;2023-04-25T03:41:06;8.07;;;6.67;;
14992;SDS011;7592;51.088;13.732;2023-04-25T03:46:06;6.30;;;5.37;;
14992;SDS011;7592;51.088;13.732;2023-04-25T03:50:59;6.93;;;6.23;;
14992;SDS011;7592;51.088;13.732;2023-04-25T03:55:53;8.27;;;6.00;;
14992;SDS011;7592;51.088;13.732;2023-04-25T04:00:45;8.37;;;5.87;;
14992;SDS011;7592;51.088;13.732;2023-04-25T04:05:37;5.83;;;5.33;;
14992;SDS011;7592;51.088;13.732;2023-04-25T04:10:33;6.50;;;5.87;;
14992;SDS011;7592;51.088;13.732;2023-04-25T04:15:25;7.57;;;6.77;;
14992;SDS011;7592;51.088;13.732;2023-04-25T04:20:19;10.77;;;7.60;;
14992;SDS011;7592;51.088;13.732;2023-04-25T04:25:13;9.20;;;7.00;;
14992;SDS011;7592;51.088;13.732;2023-04-25T04:30:28;10.23;;;8.20;;
14992;SDS011;7592;51.088;13.732;2023-04-25T04:35:23;14.30;;;12.80;;
14992;SDS011;7592;51.088;13.732;2023-04-25T04:40:16;14.93;;;13.53;;
14992;SDS011;7592;51.088;13.732;2023-04-25T04:45:16;11.00;;;9.00;;
14992;SDS011;7592;51.088;13.732;2023-04-25T04:50:27;8.17;;;6.60;;
14992;SDS011;7592;51.088;13.732;2023-04-25T04:55:32;6.17;;;5.27;;
14992;SDS011;7592;51.088;13.732;2023-04-25T05:00:32;8.33;;;5.80;;
14992;SDS011;7592;51.088;13.732;2023-04-25T05:05:36;6.93;;;5.27;;
14992;SDS011;7592;51.088;13.732;2023-04-25T05:10:41;5.93;;;5.07;;
14992;SDS011;7592;51.088;13.732;2023-04-25T05:15:51;6.77;;;4.97;;
14992;SDS011;7592;51.088;13.732;2023-04-25T05:20:51;5.00;;;4.60;;
14992;SDS011;7592;51.088;13.732;2023-04-25T05:26:10;5.30;;;4.47;;
14992;SDS011;7592;51.088;13.732;2023-04-25T05:31:28;8.53;;;4.17;;
14992;SDS011;7592;51.088;13.732;2023-04-25T05:36:25;4.07;;;3.67;;
14992;SDS011;7592;51.088;13.732;2023-04-25T05:41:19;5.57;;;3.30;;
14992;SDS011;7592;51.088;13.732;2023-04-25T05:46:38;6.27;;;3.80;;
14992;SDS011;7592;51.088;13.732;2023-04-25T05:51:36;6.63;;;3.50;;
14992;SDS011;7592;51.088;13.732;2023-04-25T05:56:46;4.80;;;3.10;;
14992;SDS011;7592;51.088;13.732;2023-04-25T06:01:38;3.60;;;3.30;;
14992;SDS011;7592;51.088;13.732;2023-04-25T06:06:31;5.97;;;3.17;;
14992;SDS011;7592;51.088;13.732;2023-04-25T06:11:24;7.53;;;3.90;;
14992;SDS011;7592;51.088;13.732;2023-04-25T06:16:16;5.93;;;3.80;;
14992;SDS011;7592;51.088;13.732;2023-04-25T06:21:08;4.23;;;3.20;;
14992;SDS011;7592;51.088;13.732;2023-04-25T06:26:01;6.83;;;2.90;;
14992;SDS011;7592;51.088;13.732;2023-04-25T06:30:54;6.17;;;3.00;;
14992;SDS011;7592;51.088;13.732;2023-04-25T06:35:47;5.30;;;2.90;;
14992;SDS011;7592;51.088;13.732;2023-04-25T06:40:45;4.00;;;3.27;;
14992;SDS011;7592;51.088;13.732;2023-04-25T06:45:38;6.43;;;3.00;;
14992;SDS011;7592;51.088;13.732;2023-04-25T06:50:33;4.80;;;3.28;;
14992;SDS011;7592;51.088;13.732;2023-04-25T06:55:26;2.42;;;2.22;;
14992;SDS011;7592;51.088;13.732;2023-04-25T07:00:42;3.15;;;2.22;;
14992;SDS011;7592;51.088;13.732;2023-04-25T07:05:35;1.85;;;1.65;;
14992;SDS011;7592;51.088;13.732;2023-04-25T07:10:27;2.10;;;1.90;;
14992;SDS011;7592;51.088;13.732;2023-04-25T07:15:21;3.78;;;2.00;;
14992;SDS011;7592;51.088;13.732;2023-04-25T07:20:14;4.50;;;2.60;;
14992;SDS011;7592;51.088;13.732;2023-04-25T07:25:07;4.05;;;2.05;;
14992;SDS011;7592;51.088;13.732;2023-04-25T07:30:00;4.70;;;2.40;;
14992;SDS011;7592;51.088;13.732;2023-04-25T07:34:54;2.90;;;1.80;;
14992;SDS011;7592;51.088;13.732;2023-04-25T07:39:46;6.55;;;1.85;;
14992;SDS011;7592;51.088;13.732;2023-04-25T07:44:39;2.00;;;1.37;;
14992;SDS011;7592;51.088;13.732;2023-04-25T07:49:35;3.60;;;1.77;;
14992;SDS011;7592;51.088;13.732;2023-04-25T07:54:28;2.67;;;2.00;;
14992;SDS011;7592;51.088;13.732;2023-04-25T07:59:27;1.57;;;1.47;;
14992;SDS011;7592;51.088;13.732;2023-04-25T08:04:23;3.37;;;2.13;;
14992;SDS011;7592;51.088;13.732;2023-04-25T08:09:21;4.72;;;1.85;;
14992;SDS011;7592;51.088;13.732;2023-04-25T08:14:15;3.42;;;1.80;;
14992;SDS011;7592;51.088;13.732;2023-04-25T08:19:09;2.70;;;1.93;;
14992;SDS011;7592;51.088;13.732;2023-04-25T08:24:02;2.10;;;1.80;;
14992;SDS011;7592;51.088;13.732;2023-04-25T08:28:59;4.87;;;2.30;;
14992;SDS011;7592;51.088;13.732;2023-04-25T08:33:52;10.50;;;2.97;;
14992;SDS011;7592;51.088;13.732;2023-04-25T08:39:05;2.83;;;2.00;;
14992;SDS011;7592;51.088;13.732;2023-04-25T08:44:04;2.70;;;2.30;;
14992;SDS011;7592;51.088;13.732;2023-04-25T08:49:00;6.23;;;2.60;;
14992;SDS011;7592;51.088;13.732;2023-04-25T08:53:53;2.97;;;2.10;;
14992;SDS011;7592;51.088;13.732;2023-04-25T08:59:06;4.07;;;2.30;;
14992;SDS011;7592;51.088;13.732;2023-04-25T09:04:01;3.33;;;2.00;;
14992;SDS011;7592;51.088;13.732;2023-04-25T09:08:54;2.77;;;2.20;;
14992;SDS011;7592;51.088;13.732;2023-04-25T09:13:47;2.93;;;2.57;;
14992;SDS011;7592;51.088;13.732;2023-04-25T09:18:47;3.20;;;2.63;;
14992;SDS011;7592;51.088;13.732;2023-04-25T09:23:43;4.37;;;2.97;;
14992;SDS011;7592;51.088;13.732;2023-04-25T09:28:37;3.33;;;2.37;;
14992;SDS011;7592;51.088;13.732;2023-04-25T09:33:33;6.27;;;3.67;;
14992;SDS011;7592;51.088;13.732;2023-04-25T09:38:31;6.30;;;3.43;;
14992;SDS011;7592;51.088;13.732;2023-04-25T09:43:35;5.80;;;3.47;;
14992;SDS011;7592;51.088;13.732;2023-04-25T09:48:28;2.53;;;2.20;;
14992;SDS011;7592;51.088;13.732;2023-04-25T09:53:26;4.13;;;2.67;;
14992;SDS011;7592;51.088;13.732;2023-04-25T09:58:36;5.70;;;2.97;;
14992;SDS011;7592;51.088;13.732;2023-04-25T10:03:31;6.80;;;3.50;;
14992;SDS011;7592;51.088;13.732;2023-04-25T10:08:53;2.27;;;1.87;;
14992;SDS011;7592;51.088;13.732;2023-04-25T10:13:49;3.77;;;1.80;;
14992;SDS011;7592;51.088;13.732;2023-04-25T10:18:42;3.80;;;2.37;;
14992;SDS011;7592;51.088;13.732;2023-04-25T10:23:34;7.90;;;2.87;;
14992;SDS011;7592;51.088;13.732;2023-04-25T10:28:28;3.30;;;2.20;;
14992;SDS011;7592;51.088;13.732;2023-04-25T10:33:21;3.77;;;2.30;;
14992;SDS011;7592;51.088;13.732;2023-04-25T10:38:31;3.70;;;2.50;;
14992;SDS011;7592;51.088;13.732;2023-04-25T10:43:36;3.27;;;2.60;;
14992;SDS011;7592;51.088;13.732;2023-04-25T10:48:38;5.13;;;2.63;;
14992;SDS011;7592;51.088;13.732;2023-04-25T10:53:46;6.20;;;3.37;;
14992;SDS011;7592;51.088;13.732;2023-04-25T10:58:48;4.67;;;3.77;;
14992;SDS011;7592;51.088;13.732;2023-04-25T11:03:43;5.17;;;4.10;;
14992;SDS011;7592;51.088;13.732;2023-04-25T11:08:40;4.30;;;3.90;;
14992;SDS011;7592;51.088;13.732;2023-04-25T11:13:41;8.33;;;4.37;;
14992;SDS011;7592;51.088;13.732;2023-04-25T11:18:33;5.23;;;3.23;;
14992;SDS011;7592;51.088;13.732;2023-04-25T11:23:26;7.63;;;3.13;;
14992;SDS011;7592;51.088;13.732;2023-04-25T11:28:21;3.63;;;2.03;;
14992;SDS011;7592;51.088;13.732;2023-04-25T11:33:16;2.83;;;1.70;;
14992;SDS011;7592;51.088;13.732;2023-04-25T11:38:09;0.97;;;0.97;;
14992;SDS011;7592;51.088;13.732;2023-04-25T11:43:01;1.77;;;0.97;;
14992;SDS011;7592;51.088;13.732;2023-04-25T11:47:54;1.13;;;0.80;;
14992;SDS011;7592;51.088;13.732;2023-04-25T11:52:47;2.43;;;1.07;;
14992;SDS011;7592;51.088;13.732;2023-04-25T11:57:40;1.20;;;1.10;;
14992;SDS011;7592;51.088;13.732;2023-04-25T12:02:40;2.87;;;1.60;;
14992;SDS011;7592;51.088;13.732;2023-04-25T12:07:33;2.87;;;1.60;;
14992;SDS011;7592;51.088;13.732;2023-04-25T12:12:27;2.73;;;1.70;;
14992;SDS011;7592;51.088;13.732;2023-04-25T12:17:23;3.63;;;1.97;;
14992;SDS011;7592;51.088;13.732;2023-04-25T12:22:19;4.60;;;2.30;;
14992;SDS011;7592;51.088;13.732;2023-04-25T12:27:15;4.10;;;2.23;;
14992;SDS011;7592;51.088;13.732;2023-04-25T12:32:11;6.57;;;2.50;;
14992;SDS011;7592;51.088;13.732;2023-04-25T12:37:03;7.10;;;2.70;;
14992;SDS011;7592;51.088;13.732;2023-04-25T12:41:56;5.20;;;2.47;;
14992;SDS011;7592;51.088;13.732;2023-04-25T12:46:48;7.13;;;2.70;;
14992;SDS011;7592;51.088;13.732;2023-04-25T12:51:41;7.07;;;2.80;;
14992;SDS011;7592;51.088;13.732;2023-04-25T12:56:33;5.10;;;2.07;;
14992;SDS011;7592;51.088;13.732;2023-04-25T13:01:26;6.80;;;2.73;;
14992;SDS011;7592;51.088;13.732;2023-04-25T13:06:19;8.40;;;2.90;;
14992;SDS011;7592;51.088;13.732;2023-04-25T13:11:12;8.93;;;2.93;;
14992;SDS011;7592;51.088;13.732;2023-04-25T13:16:06;6.83;;;2.70;;
14992;SDS011;7592;51.088;13.732;2023-04-25T13:20:59;10.47;;;3.00;;
14992;SDS011;7592;51.088;13.732;2023-04-25T13:25:51;10.97;;;4.13;;
14992;SDS011;7592;51.088;13.732;2023-04-25T13:30:43;20.00;;;7.27;;
14992;SDS011;7592;51.088;13.732;2023-04-25T13:35:36;8.63;;;5.23;;
14992;SDS011;7592;51.088;13.732;2023-04-25T13:40:29;15.77;;;3.83;;
14992;SDS011;7592;51.088;13.732;2023-04-25T13:45:22;9.87;;;3.73;;
14992;SDS011;7592;51.088;13.732;2023-04-25T13:50:14;8.67;;;3.00;;
14992;SDS011;7592;51.088;13.732;2023-04-25T13:55:07;7.73;;;2.73;;
14992;SDS011;7592;51.088;13.732;2023-04-25T14:00:00;4.33;;;2.90;;
14992;SDS011;7592;51.088;13.732;2023-04-25T14:04:57;7.03;;;3.00;;
14992;SDS011;7592;51.088;13.732;2023-04-25T14:09:49;6.90;;;2.60;;
14992;SDS011;7592;51.088;13.732;2023-04-25T14:14:41;12.77;;;3.37;;
14992;SDS011;7592;51.088;13.732;2023-04-25T14:19:33;9.60;;;3.30;;
14992;SDS011;7592;51.088;13.732;2023-04-25T14:24:25;9.60;;;3.63;;
14992;SDS011;7592;51.088;13.732;2023-04-25T14:29:17;7.20;;;3.10;;
14992;SDS011;7592;51.088;13.732;2023-04-25T14:34:09;7.03;;;2.97;;
14992;SDS011;7592;51.088;13.732;2023-04-25T14:39:02;13.30;;;2.87;;
14992;SDS011;7592;51.088;13.732;2023-04-25T14:43:56;9.43;;;3.33;;
14992;SDS011;7592;51.088;13.732;2023-04-25T14:48:48;8.67;;;3.63;;
14992;SDS011;7592;51.088;13.732;2023-04-25T14:53:42;7.00;;;3.03;;
14992;SDS011;7592;51.088;13.732;2023-04-25T14:58:34;9.50;;;3.20;;
14992;SDS011;7592;51.088;13.732;2023-04-25T15:03:26;8.73;;;2.77;;
14992;SDS011;7592;51.088;13.732;2023-04-25T15:08:19;7.57;;;2.90;;
14992;SDS011;7592;51.088;13.732;2023-04-25T15:13:11;8.07;;;3.00;;
14992;SDS011;7592;51.088;13.732;2023-04-25T15:18:04;11.57;;;4.63;;
14992;SDS011;7592;51.088;13.732;2023-04-25T15:22:56;5.87;;;2.10;;
14992;SDS011;7592;51.088;13.732;2023-04-25T15:27:49;6.23;;;2.03;;
14992;SDS011;7592;51.088;13.732;2023-04-25T15:32:43;6.87;;;2.03;;
14992;SDS011;7592;51.088;13.732;2023-04-25T15:37:36;5.07;;;2.07;;
14992;SDS011;7592;51.088;13.732;2023-04-25T15:42:28;6.87;;;2.63;;
14992;SDS011;7592;51.088;13.732;2023-04-25T15:47:21;5.07;;;2.23;;
14992;SDS011;7592;51.088;13.732;2023-04-25T15:52:14;3.20;;;1.33;;
14992;SDS011;7592;51.088;13.732;2023-04-25T15:57:06;5.37;;;1.90;;
14992;SDS011;7592;51.088;13.732;2023-04-25T16:02:00;3.47;;;1.70;;
14992;SDS011;7592;51.088;13.732;2023-04-25T16:06:53;6.30;;;2.47;;
14992;SDS011;7592;51.088;13.732;2023-04-25T16:11:45;3.60;;;1.90;;
14992;SDS011;7592;51.088;13.732;2023-04-25T16:16:37;6.83;;;2.10;;
14992;SDS011;7592;51.088;13.732;2023-04-25T16:21:29;5.47;;;1.77;;
14992;SDS011;7592;51.088;13.732;2023-04-25T16:26:22;6.10;;;2.33;;
14992;SDS011;7592;51.088;13.732;2023-04-25T16:31:14;3.87;;;2.30;;
14992;SDS011;7592;51.088;13.732;2023-04-25T16:36:07;9.03;;;1.83;;
14992;SDS011;7592;51.088;13.732;2023-04-25T16:40:59;4.57;;;1.60;;
14992;SDS011;7592;51.088;13.732;2023-04-25T16:45:51;4.37;;;1.53;;
14992;SDS011;7592;51.088;13.732;2023-04-25T16:50:44;3.20;;;1.60;;
14992;SDS011;7592;51.088;13.732;2023-04-25T16:55:36;4.33;;;1.33;;
14992;SDS011;7592;51.088;13.732;2023-04-25T17:00:28;3.37;;;1.50;;
14992;SDS011;7592;51.088;13.732;2023-04-25T17:05:20;5.80;;;1.80;;
14992;SDS011;7592;51.088;13.732;2023-04-25T17:10:12;3.90;;;1.43;;
14992;SDS011;7592;51.088;13.732;2023-04-25T17:15:04;6.00;;;2.63;;
14992;SDS011;7592;51.088;13.732;2023-04-25T17:19:57;3.43;;;1.57;;
14992;SDS011;7592;51.088;13.732;2023-04-25T17:24:49;9.30;;;2.47;;
14992;SDS011;7592;51.088;13.732;2023-04-25T17:29:41;3.97;;;1.93;;
14992;SDS011;7592;51.088;13.732;2023-04-25T17:34:34;3.57;;;1.80;;
14992;SDS011;7592;51.088;13.732;2023-04-25T17:39:27;6.83;;;1.73;;
14992;SDS011;7592;51.088;13.732;2023-04-25T17:44:19;2.80;;;1.50;;
14992;SDS011;7592;51.088;13.732;2023-04-25T17:49:12;5.33;;;1.77;;
14992;SDS011;7592;51.088;13.732;2023-04-25T17:54:04;3.33;;;1.40;;
14992;SDS011;7592;51.088;13.732;2023-04-25T17:58:57;4.30;;;1.80;;
14992;SDS011;7592;51.088;13.732;2023-04-25T18:03:49;4.57;;;1.40;;
14992;SDS011;7592;51.088;13.732;2023-04-25T18:08:42;3.90;;;1.73;;
14992;SDS011;7592;51.088;13.732;2023-04-25T18:13:35;2.67;;;1.70;;
14992;SDS011;7592;51.088;13.732;2023-04-25T18:18:29;16.40;;;6.57;;
14992;SDS011;7592;51.088;13.732;2023-04-25T18:23:24;3.57;;;1.37;;
14992;SDS011;7592;51.088;13.732;2023-04-25T18:28:17;6.57;;;1.73;;
14992;SDS011;7592;51.088;13.732;2023-04-25T18:33:09;7.13;;;2.03;;
14992;SDS011;7592;51.088;13.732;2023-04-25T18:38:01;3.70;;;1.33;;
14992;SDS011;7592;51.088;13.732;2023-04-25T18:42:54;5.17;;;1.50;;
14992;SDS011;7592;51.088;13.732;2023-04-25T18:47:46;2.27;;;1.70;;
14992;SDS011;7592;51.088;13.732;2023-04-25T18:52:38;4.00;;;2.20;;
14992;SDS011;7592;51.088;13.732;2023-04-25T18:57:31;6.37;;;2.00;;
14992;SDS011;7592;51.088;13.732;2023-04-25T19:02:23;4.37;;;1.87;;
14992;SDS011;7592;51.088;13.732;2023-04-25T19:07:17;9.10;;;2.40;;
14992;SDS011;7592;51.088;13.732;2023-04-25T19:12:11;6.13;;;2.47;;
14992;SDS011;7592;51.088;13.732;2023-04-25T19:17:03;4.67;;;1.90;;
14992;SDS011;7592;51.088;13.732;2023-04-25T19:21:56;4.30;;;1.90;;
14992;SDS011;7592;51.088;13.732;2023-04-25T19:26:49;4.80;;;1.97;;
14992;SDS011;7592;51.088;13.732;2023-04-25T19:31:41;5.53;;;2.13;;
14992;SDS011;7592;51.088;13.732;2023-04-25T19:36:36;3.23;;;2.10;;
14992;SDS011;7592;51.088;13.732;2023-04-25T19:41:29;3.73;;;1.83;;
14992;SDS011;7592;51.088;13.732;2023-04-25T19:46:22;4.47;;;2.33;;
14992;SDS011;7592;51.088;13.732;2023-04-25T19:51:15;3.20;;;2.00;;
14992;SDS011;7592;51.088;13.732;2023-04-25T19:56:07;12.77;;;5.33;;
14992;SDS011;7592;51.088;13.732;2023-04-25T20:01:00;28.57;;;12.30;;
14992;SDS011;7592;51.088;13.732;2023-04-25T20:05:53;15.63;;;6.60;;
14992;SDS011;7592;51.088;13.732;2023-04-25T20:10:45;13.67;;;5.13;;
14992;SDS011;7592;51.088;13.732;2023-04-25T20:15:37;6.17;;;3.07;;
14992;SDS011;7592;51.088;13.732;2023-04-25T20:20:29;5.03;;;3.10;;
14992;SDS011;7592;51.088;13.732;2023-04-25T20:25:21;4.67;;;3.40;;
14992;SDS011;7592;51.088;13.732;2023-04-25T20:30:14;8.30;;;3.10;;
14992;SDS011;7592;51.088;13.732;2023-04-25T20:35:07;7.17;;;2.40;;
14992;SDS011;7592;51.088;13.732;2023-04-25T20:40:00;5.57;;;2.90;;
14992;SDS011;7592;51.088;13.732;2023-04-25T20:44:55;6.60;;;3.17;;
14992;SDS011;7592;51.088;13.732;2023-04-25T20:49:48;4.27;;;2.73;;
14992;SDS011;7592;51.088;13.732;2023-04-25T20:54:40;4.20;;;2.63;;
14992;SDS011;7592;51.088;13.732;2023-04-25T20:59:33;3.70;;;2.73;;
14992;SDS011;7592;51.088;13.732;2023-04-25T21:04:25;5.27;;;2.93;;
14992;SDS011;7592;51.088;13.732;2023-04-25T21:09:18;4.97;;;2.97;;
14992;SDS011;7592;51.088;13.732;2023-04-25T21:14:10;3.30;;;2.40;;
14992;SDS011;7592;51.088;13.732;2023-04-25T21:19:02;4.27;;;2.23;;
14992;SDS011;7592;51.088;13.732;2023-04-25T21:23:55;4.47;;;2.20;;
14992;SDS011;7592;51.088;13.732;2023-04-25T21:28:47;4.80;;;2.27;;
14992;SDS011;7592;51.088;13.732;2023-04-25T21:33:40;4.27;;;2.23;;
14992;SDS011;7592;51.088;13.732;2023-04-25T21:38:32;2.57;;;1.60;;
14992;SDS011;7592;51.088;13.732;2023-04-25T21:43:24;5.67;;;2.33;;
14992;SDS011;7592;51.088;13.732;2023-04-25T21:48:16;1.47;;;1.37;;
14992;SDS011;7592;51.088;13.732;2023-04-25T21:53:08;3.93;;;1.97;;
14992;SDS011;7592;51.088;13.732;2023-04-25T21:58:01;4.90;;;1.97;;
14992;SDS011;7592;51.088;13.732;2023-04-25T22:02:53;5.87;;;1.83;;
14992;SDS011;7592;51.088;13.732;2023-04-25T22:07:46;2.90;;;1.73;;
14992;SDS011;7592;51.088;13.732;2023-04-25T22:12:41;4.57;;;1.37;;
14992;SDS011;7592;51.088;13.732;2023-04-25T22:17:35;5.67;;;2.10;;
14992;SDS011;7592;51.088;13.732;2023-04-25T22:22:27;5.73;;;2.23;;
14992;SDS011;7592;51.088;13.732;2023-04-25T22:27:19;2.40;;;1.40;;
14992;SDS011;7592;51.088;13.732;2023-04-25T22:32:11;1.67;;;1.20;;
14992;SDS011;7592;51.088;13.732;2023-04-25T22:37:03;3.03;;;1.13;;
14992;SDS011;7592;51.088;13.732;2023-04-25T22:41:56;3.53;;;1.30;;
14992;SDS011;7592;51.088;13.732;2023-04-25T22:46:48;2.37;;;1.10;;
14992;SDS011;7592;51.088;13.732;2023-04-25T22:51:40;8.63;;;1.60;;
14992;SDS011;7592;51.088;13.732;2023-04-25T22:56:33;5.43;;;1.30;;
14992;SDS011;7592;51.088;13.732;2023-04-25T23:01:25;4.37;;;1.40;;
14992;SDS011;7592;51.088;13.732;2023-04-25T23:06:19;3.97;;;1.37;;
14992;SDS011;7592;51.088;13.732;2023-04-25T23:11:11;4.53;;;1.73;;
14992;SDS011;7592;51.088;13.732;2023-04-25T23:16:07;4.87;;;1.70;;
14992;SDS011;7592;51.088;13.732;2023-04-25T23:21:02;3.10;;;1.37;;
14992;SDS011;7592;51.088;13.732;2023-04-25T23:25:55;4.50;;;1.80;;
14992;SDS011;7592;51.088;13.732;2023-04-25T23:30:48;4.97;;;1.63;;
14992;SDS011;7592;51.088;13.732;2023-04-25T23:35:40;3.07;;;1.57;;
14992;SDS011;7592;51.088;13.732;2023-04-25T23:40:32;2.73;;;1.60;;
14992;SDS011;7592;51.088;13.732;2023-04-25T23:45:25;5.23;;;1.70;;
14992;SDS011;7592;51.088;13.732;2023-04-25T23:50:18;5.77;;;1.67;;
14992;SDS011;7592;51.088;13.732;2023-04-25T23:55:11;6.67;;;1.80;;
